Terminal Aerodrome Forecast
Issued by NWS

Home | Current Version | Previous Version | Text Only | Print | Product List | Glossary On
Versions: 1 2 3 4 5 6 7 8 9 10 11 12 13 14 15 16 17 18 19 20 21 22 23 24 25 26 27 28 29 30 31 32 33 34 35 36 37 38 39 40 41 42 43 44 45 46 47 48 49 50
000
FTUS43 KGRB 220500
TAFRHI
TAF
KRHI 220530Z 2206/2306 11005KT 6SM BR SCT003 OVC006
      TEMPO 2206/2208 1/2SM FG BKN003
     FM220800 VRB03KT 3SM BR SCT001 OVC006
      TEMPO 2208/2212 1/4SM FG VV001
     FM221500 13004KT 3SM BR BKN006 OVC012
     FM221800 12004KT 6SM HZ OVC020
     FM222200 VRB03KT 6SM HZ BKN015 BKN030
      TEMPO 2302/2306 2SM BR BKN004 OVC010=

USA.gov is the U.S. government's official web portal to all federal, state and local government web resources and services.